sensor_id;sensor_type;location;lat;lon;timestamp;pressure;altitude;pressure_sealevel;temperature;humidity
35848;BME280;22332;51.954;20.118;2023-07-02T00:02:14;98983.58;;;16.38;74.73
35848;BME280;22332;51.954;20.118;2023-07-02T00:05:20;98978.09;;;16.36;74.90
35848;BME280;22332;51.954;20.118;2023-07-02T00:08:25;98975.11;;;16.36;75.01
35848;BME280;22332;51.954;20.118;2023-07-02T00:11:31;98978.61;;;16.34;74.99
35848;BME280;22332;51.954;20.118;2023-07-02T00:14:37;98979.45;;;16.32;75.12
35848;BME280;22332;51.954;20.118;2023-07-02T00:17:42;98977.27;;;16.27;75.27
35848;BME280;22332;51.954;20.118;2023-07-02T00:20:48;98976.97;;;16.24;75.53
35848;BME280;22332;51.954;20.118;2023-07-02T00:23:53;98971.43;;;16.26;75.77
35848;BME280;22332;51.954;20.118;2023-07-02T00:27:01;98972.42;;;16.31;76.09
35848;BME280;22332;51.954;20.118;2023-07-02T00:30:09;98971.19;;;16.34;76.28
35848;BME280;22332;51.954;20.118;2023-07-02T00:33:14;98971.27;;;16.35;76.56
35848;BME280;22332;51.954;20.118;2023-07-02T00:36:20;98972.98;;;16.37;76.90
35848;BME280;22332;51.954;20.118;2023-07-02T00:39:25;98968.28;;;16.40;77.14
35848;BME280;22332;51.954;20.118;2023-07-02T00:42:31;98972.52;;;16.42;77.27
35848;BME280;22332;51.954;20.118;2023-07-02T00:45:37;98971.20;;;16.45;77.29
35848;BME280;22332;51.954;20.118;2023-07-02T00:48:42;98971.12;;;16.46;77.31
35848;BME280;22332;51.954;20.118;2023-07-02T00:51:48;98968.52;;;16.49;77.74
35848;BME280;22332;51.954;20.118;2023-07-02T00:54:54;98967.27;;;16.54;78.11
35848;BME280;22332;51.954;20.118;2023-07-02T00:57:59;98962.69;;;16.59;78.36
35848;BME280;22332;51.954;20.118;2023-07-02T01:01:05;98959.81;;;16.66;78.63
35848;BME280;22332;51.954;20.118;2023-07-02T01:04:11;98959.63;;;16.74;78.88
35848;BME280;22332;51.954;20.118;2023-07-02T01:07:17;98956.50;;;16.85;78.99
35848;BME280;22332;51.954;20.118;2023-07-02T01:10:22;98952.67;;;16.93;79.20
35848;BME280;22332;51.954;20.118;2023-07-02T01:13:28;98950.67;;;17.00;79.31
35848;BME280;22332;51.954;20.118;2023-07-02T01:16:35;98950.71;;;17.07;79.35
35848;BME280;22332;51.954;20.118;2023-07-02T01:19:44;98947.30;;;17.14;79.50
35848;BME280;22332;51.954;20.118;2023-07-02T01:22:56;98947.77;;;17.22;79.51
35848;BME280;22332;51.954;20.118;2023-07-02T01:26:06;98943.94;;;17.26;79.56
35848;BME280;22332;51.954;20.118;2023-07-02T01:29:21;98942.91;;;17.30;79.75
35848;BME280;22332;51.954;20.118;2023-07-02T01:32:27;98939.65;;;17.31;79.78
35848;BME280;22332;51.954;20.118;2023-07-02T01:35:33;98937.60;;;17.35;79.93
35848;BME280;22332;51.954;20.118;2023-07-02T01:38:38;98936.25;;;17.39;79.88
35848;BME280;22332;51.954;20.118;2023-07-02T01:41:49;98933.05;;;17.45;79.93
35848;BME280;22332;51.954;20.118;2023-07-02T01:44:55;98930.38;;;17.48;79.99
35848;BME280;22332;51.954;20.118;2023-07-02T01:48:01;98926.27;;;17.47;80.05
35848;BME280;22332;51.954;20.118;2023-07-02T01:51:06;98923.17;;;17.46;80.17
35848;BME280;22332;51.954;20.118;2023-07-02T01:54:12;98921.34;;;17.46;80.20
35848;BME280;22332;51.954;20.118;2023-07-02T01:57:17;98921.88;;;17.46;80.10
35848;BME280;22332;51.954;20.118;2023-07-02T02:00:25;98919.58;;;17.42;80.00
35848;BME280;22332;51.954;20.118;2023-07-02T02:03:31;98917.02;;;17.38;80.03
35848;BME280;22332;51.954;20.118;2023-07-02T02:06:37;98914.83;;;17.32;80.13
35848;BME280;22332;51.954;20.118;2023-07-02T02:09:43;98918.46;;;17.30;80.33
35848;BME280;22332;51.954;20.118;2023-07-02T02:12:49;98914.42;;;17.32;80.56
35848;BME280;22332;51.954;20.118;2023-07-02T02:15:54;98912.96;;;17.35;80.57
35848;BME280;22332;51.954;20.118;2023-07-02T02:19:00;98912.20;;;17.50;80.89
35848;BME280;22332;51.954;20.118;2023-07-02T02:22:06;98907.30;;;17.87;80.57
35848;BME280;22332;51.954;20.118;2023-07-02T02:25:12;98901.33;;;18.11;80.20
35848;BME280;22332;51.954;20.118;2023-07-02T02:28:17;98899.77;;;18.39;80.00
35848;BME280;22332;51.954;20.118;2023-07-02T02:31:23;98903.95;;;18.65;79.76
35848;BME280;22332;51.954;20.118;2023-07-02T02:34:28;98898.95;;;18.85;79.76
35848;BME280;22332;51.954;20.118;2023-07-02T02:37:38;98900.09;;;19.11;79.57
35848;BME280;22332;51.954;20.118;2023-07-02T02:40:44;98898.05;;;19.35;79.19
35848;BME280;22332;51.954;20.118;2023-07-02T02:43:52;98899.80;;;19.49;78.89
35848;BME280;22332;51.954;20.118;2023-07-02T02:46:58;98902.65;;;19.60;78.67
35848;BME280;22332;51.954;20.118;2023-07-02T02:50:05;98903.37;;;19.73;78.68
35848;BME280;22332;51.954;20.118;2023-07-02T02:53:11;98901.89;;;19.93;78.45
35848;BME280;22332;51.954;20.118;2023-07-02T02:56:16;98896.14;;;20.11;78.20
35848;BME280;22332;51.954;20.118;2023-07-02T02:59:22;98895.41;;;20.20;77.93
35848;BME280;22332;51.954;20.118;2023-07-02T03:02:28;98897.27;;;20.26;77.59
35848;BME280;22332;51.954;20.118;2023-07-02T03:05:33;98896.69;;;20.34;77.48
35848;BME280;22332;51.954;20.118;2023-07-02T03:08:39;98896.38;;;20.44;77.32
35848;BME280;22332;51.954;20.118;2023-07-02T03:11:44;98893.60;;;20.51;76.90
35848;BME280;22332;51.954;20.118;2023-07-02T03:14:50;98896.30;;;20.58;76.80
35848;BME280;22332;51.954;20.118;2023-07-02T03:17:58;98895.16;;;20.66;76.52
35848;BME280;22332;51.954;20.118;2023-07-02T03:21:04;98893.09;;;20.69;76.18
35848;BME280;22332;51.954;20.118;2023-07-02T03:24:09;98889.79;;;20.70;76.07
35848;BME280;22332;51.954;20.118;2023-07-02T03:27:16;98892.98;;;20.68;76.02
35848;BME280;22332;51.954;20.118;2023-07-02T03:30:21;98891.45;;;20.64;75.70
35848;BME280;22332;51.954;20.118;2023-07-02T03:33:27;98894.23;;;20.61;75.69
35848;BME280;22332;51.954;20.118;2023-07-02T03:36:32;98890.70;;;20.60;75.56
35848;BME280;22332;51.954;20.118;2023-07-02T03:39:38;98891.75;;;20.59;75.50
35848;BME280;22332;51.954;20.118;2023-07-02T03:42:44;98892.76;;;20.59;75.30
35848;BME280;22332;51.954;20.118;2023-07-02T03:45:50;98891.67;;;20.64;75.20
35848;BME280;22332;51.954;20.118;2023-07-02T03:48:55;98890.83;;;20.66;75.08
35848;BME280;22332;51.954;20.118;2023-07-02T03:52:00;98887.80;;;20.66;74.82
35848;BME280;22332;51.954;20.118;2023-07-02T03:55:08;98887.73;;;20.62;74.52
35848;BME280;22332;51.954;20.118;2023-07-02T03:58:13;98889.73;;;20.52;74.58
35848;BME280;22332;51.954;20.118;2023-07-02T04:01:19;98891.98;;;20.52;74.66
35848;BME280;22332;51.954;20.118;2023-07-02T04:04:24;98893.20;;;20.53;74.39
35848;BME280;22332;51.954;20.118;2023-07-02T04:07:30;98883.23;;;20.49;74.28
35848;BME280;22332;51.954;20.118;2023-07-02T04:10:35;98880.31;;;20.47;74.17
35848;BME280;22332;51.954;20.118;2023-07-02T04:13:41;98882.92;;;20.47;74.18
35848;BME280;22332;51.954;20.118;2023-07-02T04:16:47;98887.85;;;20.51;73.80
35848;BME280;22332;51.954;20.118;2023-07-02T04:19:55;98900.42;;;20.19;72.08
35848;BME280;22332;51.954;20.118;2023-07-02T04:23:01;98897.05;;;19.91;73.91
35848;BME280;22332;51.954;20.118;2023-07-02T04:26:06;98897.83;;;20.18;74.23
35848;BME280;22332;51.954;20.118;2023-07-02T04:29:11;98897.91;;;20.41;73.91
35848;BME280;22332;51.954;20.118;2023-07-02T04:32:17;98901.52;;;20.51;73.67
35848;BME280;22332;51.954;20.118;2023-07-02T04:35:22;98897.05;;;20.65;73.57
35848;BME280;22332;51.954;20.118;2023-07-02T04:38:28;98899.97;;;20.78;73.38
35848;BME280;22332;51.954;20.118;2023-07-02T04:41:34;98895.88;;;20.90;73.26
35848;BME280;22332;51.954;20.118;2023-07-02T04:44:39;98900.39;;;21.01;72.92
35848;BME280;22332;51.954;20.118;2023-07-02T04:47:47;98901.90;;;21.10;72.94
35848;BME280;22332;51.954;20.118;2023-07-02T04:50:53;98905.59;;;21.15;72.78
35848;BME280;22332;51.954;20.118;2023-07-02T04:53:58;98905.58;;;21.14;72.70
35848;BME280;22332;51.954;20.118;2023-07-02T04:57:04;98907.85;;;21.13;72.67
35848;BME280;22332;51.954;20.118;2023-07-02T05:00:12;98908.39;;;21.13;72.46
35848;BME280;22332;51.954;20.118;2023-07-02T05:03:18;98904.73;;;21.15;72.43
35848;BME280;22332;51.954;20.118;2023-07-02T05:06:24;98905.85;;;21.19;72.44
35848;BME280;22332;51.954;20.118;2023-07-02T05:09:29;98911.42;;;21.29;72.18
35848;BME280;22332;51.954;20.118;2023-07-02T05:12:35;98914.18;;;21.34;71.94
35848;BME280;22332;51.954;20.118;2023-07-02T05:15:40;98913.59;;;21.40;71.92
35848;BME280;22332;51.954;20.118;2023-07-02T05:18:46;98919.11;;;21.44;71.53
35848;BME280;22332;51.954;20.118;2023-07-02T05:21:51;98924.41;;;21.45;71.51
35848;BME280;22332;51.954;20.118;2023-07-02T05:24:57;98923.73;;;21.46;71.27
35848;BME280;22332;51.954;20.118;2023-07-02T05:28:02;98926.41;;;21.50;71.29
35848;BME280;22332;51.954;20.118;2023-07-02T05:31:08;98929.45;;;21.55;71.09
35848;BME280;22332;51.954;20.118;2023-07-02T05:34:13;98928.64;;;21.62;70.73
35848;BME280;22332;51.954;20.118;2023-07-02T05:37:19;98931.55;;;21.65;70.59
35848;BME280;22332;51.954;20.118;2023-07-02T05:40:24;98934.77;;;21.68;69.66
35848;BME280;22332;51.954;20.118;2023-07-02T05:43:30;98925.20;;;21.60;69.62
35848;BME280;22332;51.954;20.118;2023-07-02T05:46:35;98924.94;;;21.54;70.08
35848;BME280;22332;51.954;20.118;2023-07-02T05:49:43;98929.77;;;21.65;70.16
35848;BME280;22332;51.954;20.118;2023-07-02T05:52:49;98935.54;;;21.75;69.91
35848;BME280;22332;51.954;20.118;2023-07-02T05:55:55;98944.93;;;21.90;69.63
35848;BME280;22332;51.954;20.118;2023-07-02T05:59:00;98944.70;;;22.02;69.43
35848;BME280;22332;51.954;20.118;2023-07-02T06:02:07;98942.55;;;22.04;69.08
35848;BME280;22332;51.954;20.118;2023-07-02T06:05:13;98946.39;;;22.02;68.95
35848;BME280;22332;51.954;20.118;2023-07-02T06:08:18;98940.84;;;22.01;68.98
35848;BME280;22332;51.954;20.118;2023-07-02T06:11:24;98939.26;;;22.00;68.94
35848;BME280;22332;51.954;20.118;2023-07-02T06:14:30;98934.63;;;21.89;67.75
35848;BME280;22332;51.954;20.118;2023-07-02T06:17:36;98942.36;;;21.60;67.87
35848;BME280;22332;51.954;20.118;2023-07-02T06:20:42;98950.17;;;21.49;68.31
35848;BME280;22332;51.954;20.118;2023-07-02T06:23:48;98951.73;;;21.46;68.37
35848;BME280;22332;51.954;20.118;2023-07-02T06:26:54;98957.60;;;21.53;68.88
35848;BME280;22332;51.954;20.118;2023-07-02T06:29:59;98960.98;;;21.61;68.11
35848;BME280;22332;51.954;20.118;2023-07-02T06:33:05;98954.38;;;21.63;68.11
35848;BME280;22332;51.954;20.118;2023-07-02T06:36:11;98962.08;;;21.62;68.12
35848;BME280;22332;51.954;20.118;2023-07-02T06:39:17;98969.56;;;21.67;67.50
35848;BME280;22332;51.954;20.118;2023-07-02T06:42:23;98979.69;;;21.29;66.68
35848;BME280;22332;51.954;20.118;2023-07-02T06:45:29;98978.61;;;21.02;67.96
35848;BME280;22332;51.954;20.118;2023-07-02T06:48:34;98979.10;;;20.93;68.06
35848;BME280;22332;51.954;20.118;2023-07-02T06:51:40;98983.23;;;21.02;68.60
35848;BME280;22332;51.954;20.118;2023-07-02T06:54:45;98982.45;;;21.10;68.28
35848;BME280;22332;51.954;20.118;2023-07-02T06:57:51;98982.45;;;21.00;68.19
35848;BME280;22332;51.954;20.118;2023-07-02T07:00:57;98986.59;;;20.88;68.77
35848;BME280;22332;51.954;20.118;2023-07-02T07:04:03;98985.16;;;20.96;68.88
35848;BME280;22332;51.954;20.118;2023-07-02T07:07:08;98983.31;;;21.04;68.74
35848;BME280;22332;51.954;20.118;2023-07-02T07:10:14;98981.84;;;21.08;68.94
35848;BME280;22332;51.954;20.118;2023-07-02T07:13:20;98979.88;;;21.22;68.73
35848;BME280;22332;51.954;20.118;2023-07-02T07:16:25;98972.64;;;21.50;68.73
35848;BME280;22332;51.954;20.118;2023-07-02T07:19:31;98965.12;;;21.79;68.68
35848;BME280;22332;51.954;20.118;2023-07-02T07:22:37;98964.55;;;22.10;68.48
35848;BME280;22332;51.954;20.118;2023-07-02T07:25:43;98968.21;;;22.41;68.08
35848;BME280;22332;51.954;20.118;2023-07-02T07:28:48;98972.39;;;22.70;67.43
35848;BME280;22332;51.954;20.118;2023-07-02T07:31:54;98969.70;;;22.88;66.82
35848;BME280;22332;51.954;20.118;2023-07-02T07:34:59;98975.47;;;22.99;66.52
35848;BME280;22332;51.954;20.118;2023-07-02T07:38:05;98983.79;;;22.86;65.47
35848;BME280;22332;51.954;20.118;2023-07-02T07:41:11;98989.56;;;22.48;66.61
35848;BME280;22332;51.954;20.118;2023-07-02T07:44:16;98996.99;;;22.30;66.81
35848;BME280;22332;51.954;20.118;2023-07-02T07:47:22;99000.11;;;22.15;66.90
35848;BME280;22332;51.954;20.118;2023-07-02T07:50:27;99000.99;;;22.02;67.03
35848;BME280;22332;51.954;20.118;2023-07-02T07:53:32;99004.65;;;21.86;67.18
35848;BME280;22332;51.954;20.118;2023-07-02T07:56:38;99005.63;;;21.79;67.12
35848;BME280;22332;51.954;20.118;2023-07-02T07:59:44;99004.81;;;21.78;67.24
35848;BME280;22332;51.954;20.118;2023-07-02T08:02:49;99003.80;;;21.93;67.32
35848;BME280;22332;51.954;20.118;2023-07-02T08:05:56;98999.11;;;22.11;67.28
35848;BME280;22332;51.954;20.118;2023-07-02T08:09:02;99004.39;;;22.24;67.07
35848;BME280;22332;51.954;20.118;2023-07-02T08:12:09;99003.40;;;22.28;67.07
35848;BME280;22332;51.954;20.118;2023-07-02T08:15:15;99011.35;;;22.31;67.11
35848;BME280;22332;51.954;20.118;2023-07-02T08:18:20;99014.80;;;22.26;66.93
35848;BME280;22332;51.954;20.118;2023-07-02T08:21:26;99014.05;;;22.27;66.96
35848;BME280;22332;51.954;20.118;2023-07-02T08:24:31;99014.79;;;22.41;66.78
35848;BME280;22332;51.954;20.118;2023-07-02T08:27:38;99023.37;;;22.47;66.41
35848;BME280;22332;51.954;20.118;2023-07-02T08:30:43;99024.65;;;22.44;66.75
35848;BME280;22332;51.954;20.118;2023-07-02T08:33:48;99022.59;;;22.62;66.74
35848;BME280;22332;51.954;20.118;2023-07-02T08:36:54;99020.67;;;22.89;66.21
35848;BME280;22332;51.954;20.118;2023-07-02T08:39:59;99025.69;;;23.07;66.15
35848;BME280;22332;51.954;20.118;2023-07-02T08:43:05;99025.31;;;23.06;66.19
35848;BME280;22332;51.954;20.118;2023-07-02T08:46:11;99027.98;;;23.17;66.08
35848;BME280;22332;51.954;20.118;2023-07-02T08:49:17;99021.68;;;23.39;65.77
35848;BME280;22332;51.954;20.118;2023-07-02T08:52:23;99017.53;;;23.61;65.70
35848;BME280;22332;51.954;20.118;2023-07-02T08:55:28;99017.05;;;23.79;65.37
35848;BME280;22332;51.954;20.118;2023-07-02T08:58:34;99026.27;;;23.97;65.01
35848;BME280;22332;51.954;20.118;2023-07-02T09:01:56;99030.80;;;23.99;63.96
35848;BME280;22332;51.954;20.118;2023-07-02T09:05:02;99027.67;;;23.78;64.24
35848;BME280;22332;51.954;20.118;2023-07-02T09:08:08;99029.64;;;23.82;64.68
35848;BME280;22332;51.954;20.118;2023-07-02T09:11:15;99029.05;;;23.86;64.34
35848;BME280;22332;51.954;20.118;2023-07-02T09:14:29;99038.98;;;23.70;63.00
35848;BME280;22332;51.954;20.118;2023-07-02T09:17:37;99038.95;;;23.30;63.21
35848;BME280;22332;51.954;20.118;2023-07-02T09:20:43;99035.23;;;23.26;63.39
35848;BME280;22332;51.954;20.118;2023-07-02T09:23:49;99034.74;;;23.23;64.03
35848;BME280;22332;51.954;20.118;2023-07-02T09:26:56;99033.17;;;23.45;64.63
35848;BME280;22332;51.954;20.118;2023-07-02T09:30:07;99031.64;;;23.81;64.32
35848;BME280;22332;51.954;20.118;2023-07-02T09:33:15;99025.84;;;23.91;63.36
35848;BME280;22332;51.954;20.118;2023-07-02T09:36:20;99023.95;;;24.21;63.79
35848;BME280;22332;51.954;20.118;2023-07-02T09:39:31;99026.05;;;24.56;62.87
35848;BME280;22332;51.954;20.118;2023-07-02T09:42:39;99023.55;;;24.59;62.09
35848;BME280;22332;51.954;20.118;2023-07-02T09:45:49;99022.84;;;24.63;61.48
35848;BME280;22332;51.954;20.118;2023-07-02T09:48:56;99025.50;;;24.66;61.10
35848;BME280;22332;51.954;20.118;2023-07-02T09:52:04;99021.34;;;24.74;61.48
35848;BME280;22332;51.954;20.118;2023-07-02T09:55:11;99023.80;;;24.89;61.88
35848;BME280;22332;51.954;20.118;2023-07-02T09:58:17;99027.61;;;25.07;61.94
35848;BME280;22332;51.954;20.118;2023-07-02T10:01:23;99021.00;;;25.27;61.72
35848;BME280;22332;51.954;20.118;2023-07-02T10:04:38;99014.84;;;25.39;61.55
35848;BME280;22332;51.954;20.118;2023-07-02T10:07:44;99014.56;;;25.39;60.03
35848;BME280;22332;51.954;20.118;2023-07-02T10:10:50;99018.41;;;25.33;60.00
35848;BME280;22332;51.954;20.118;2023-07-02T10:14:01;99018.91;;;25.32;59.96
35848;BME280;22332;51.954;20.118;2023-07-02T10:17:07;99017.27;;;25.16;59.78
35848;BME280;22332;51.954;20.118;2023-07-02T10:20:12;99021.98;;;24.91;59.12
35848;BME280;22332;51.954;20.118;2023-07-02T10:23:20;99010.14;;;24.82;59.91
35848;BME280;22332;51.954;20.118;2023-07-02T10:26:25;99017.12;;;24.96;60.29
35848;BME280;22332;51.954;20.118;2023-07-02T10:29:31;99019.29;;;25.18;60.10
35848;BME280;22332;51.954;20.118;2023-07-02T10:32:37;99021.29;;;25.25;59.58
35848;BME280;22332;51.954;20.118;2023-07-02T10:35:44;99021.78;;;25.07;58.50
35848;BME280;22332;51.954;20.118;2023-07-02T10:38:51;99013.96;;;24.76;58.27
35848;BME280;22332;51.954;20.118;2023-07-02T10:42:05;99018.65;;;24.57;59.15
35848;BME280;22332;51.954;20.118;2023-07-02T10:45:11;99024.59;;;24.58;59.43
35848;BME280;22332;51.954;20.118;2023-07-02T10:48:16;99023.50;;;24.38;57.18
35848;BME280;22332;51.954;20.118;2023-07-02T10:51:22;99029.41;;;24.22;58.87
35848;BME280;22332;51.954;20.118;2023-07-02T10:54:40;99029.94;;;24.15;58.82
35848;BME280;22332;51.954;20.118;2023-07-02T10:57:45;99030.31;;;24.02;58.96
35848;BME280;22332;51.954;20.118;2023-07-02T11:00:52;99035.44;;;23.97;59.27
35848;BME280;22332;51.954;20.118;2023-07-02T11:03:59;99035.70;;;23.99;59.57
35848;BME280;22332;51.954;20.118;2023-07-02T11:07:06;99037.25;;;24.10;59.40
35848;BME280;22332;51.954;20.118;2023-07-02T11:10:19;99034.09;;;24.20;59.44
35848;BME280;22332;51.954;20.118;2023-07-02T11:13:24;99038.88;;;24.24;58.95
35848;BME280;22332;51.954;20.118;2023-07-02T11:16:30;99035.44;;;24.29;59.04
35848;BME280;22332;51.954;20.118;2023-07-02T11:19:37;99026.77;;;24.53;58.78
35848;BME280;22332;51.954;20.118;2023-07-02T11:22:42;99028.30;;;24.83;58.43
35848;BME280;22332;51.954;20.118;2023-07-02T11:25:58;99024.42;;;25.00;57.52
35848;BME280;22332;51.954;20.118;2023-07-02T11:29:06;99030.87;;;25.13;58.10
35848;BME280;22332;51.954;20.118;2023-07-02T11:32:14;99032.70;;;25.23;57.97
35848;BME280;22332;51.954;20.118;2023-07-02T11:39:48;99030.83;;;25.27;57.66
35848;BME280;22332;51.954;20.118;2023-07-02T11:42:54;99032.92;;;25.05;57.59
35848;BME280;22332;51.954;20.118;2023-07-02T11:46:00;99032.92;;;24.86;56.66
35848;BME280;22332;51.954;20.118;2023-07-02T11:49:05;99041.77;;;24.59;56.35
35848;BME280;22332;51.954;20.118;2023-07-02T11:52:12;99045.79;;;24.09;56.34
35848;BME280;22332;51.954;20.118;2023-07-02T11:55:19;99051.50;;;23.86;57.25
35848;BME280;22332;51.954;20.118;2023-07-02T11:58:24;99053.58;;;23.75;55.70
35848;BME280;22332;51.954;20.118;2023-07-02T12:01:30;99052.71;;;23.63;55.71
35848;BME280;22332;51.954;20.118;2023-07-02T12:04:36;99051.69;;;23.43;56.02
35848;BME280;22332;51.954;20.118;2023-07-02T12:07:41;99050.58;;;23.51;55.39
35848;BME280;22332;51.954;20.118;2023-07-02T12:10:47;99051.74;;;23.64;54.86
35848;BME280;22332;51.954;20.118;2023-07-02T12:13:53;99054.48;;;23.82;53.64
35848;BME280;22332;51.954;20.118;2023-07-02T12:16:58;99051.40;;;23.94;54.57
35848;BME280;22332;51.954;20.118;2023-07-02T12:20:04;99050.96;;;23.98;53.00
35848;BME280;22332;51.954;20.118;2023-07-02T12:23:10;99053.25;;;23.95;53.11
35848;BME280;22332;51.954;20.118;2023-07-02T12:26:16;99062.53;;;24.01;53.20
35848;BME280;22332;51.954;20.118;2023-07-02T12:29:21;99058.94;;;24.08;51.50
35848;BME280;22332;51.954;20.118;2023-07-02T12:32:27;99061.48;;;23.99;49.29
35848;BME280;22332;51.954;20.118;2023-07-02T12:35:33;99065.79;;;23.91;51.03
35848;BME280;22332;51.954;20.118;2023-07-02T12:38:38;99066.96;;;23.85;49.55
35848;BME280;22332;51.954;20.118;2023-07-02T12:41:44;99070.11;;;23.83;50.89
35848;BME280;22332;51.954;20.118;2023-07-02T12:44:49;99072.34;;;23.80;49.66
35848;BME280;22332;51.954;20.118;2023-07-02T12:47:55;99071.48;;;23.69;49.79
35848;BME280;22332;51.954;20.118;2023-07-02T12:51:01;99071.34;;;23.59;49.34
35848;BME280;22332;51.954;20.118;2023-07-02T12:54:06;99069.21;;;23.41;48.43
35848;BME280;22332;51.954;20.118;2023-07-02T12:57:12;99073.51;;;23.38;49.76
35848;BME280;22332;51.954;20.118;2023-07-02T13:00:18;99071.41;;;23.46;49.07
35848;BME280;22332;51.954;20.118;2023-07-02T13:03:25;99074.64;;;23.53;49.25
35848;BME280;22332;51.954;20.118;2023-07-02T13:06:30;99080.85;;;23.51;48.89
35848;BME280;22332;51.954;20.118;2023-07-02T13:09:38;99084.81;;;23.46;49.43
35848;BME280;22332;51.954;20.118;2023-07-02T13:12:44;99088.02;;;23.34;47.23
35848;BME280;22332;51.954;20.118;2023-07-02T13:15:49;99094.23;;;23.21;47.41
35848;BME280;22332;51.954;20.118;2023-07-02T13:18:55;99098.87;;;23.17;47.94
35848;BME280;22332;51.954;20.118;2023-07-02T13:22:01;99101.83;;;23.17;47.81
35848;BME280;22332;51.954;20.118;2023-07-02T13:25:08;99097.89;;;23.25;48.33
35848;BME280;22332;51.954;20.118;2023-07-02T13:28:14;99097.27;;;23.49;48.70
35848;BME280;22332;51.954;20.118;2023-07-02T13:31:20;99102.48;;;23.73;48.86
35848;BME280;22332;51.954;20.118;2023-07-02T13:34:26;99109.02;;;23.87;47.31
35848;BME280;22332;51.954;20.118;2023-07-02T13:37:31;99109.50;;;23.68;46.49
35848;BME280;22332;51.954;20.118;2023-07-02T13:40:37;99114.66;;;23.64;47.35
35848;BME280;22332;51.954;20.118;2023-07-02T13:43:42;99114.35;;;23.70;48.00
35848;BME280;22332;51.954;20.118;2023-07-02T13:46:48;99119.05;;;23.85;48.15
35848;BME280;22332;51.954;20.118;2023-07-02T13:49:54;99116.04;;;24.01;47.94
35848;BME280;22332;51.954;20.118;2023-07-02T13:52:59;99118.80;;;24.20;48.44
35848;BME280;22332;51.954;20.118;2023-07-02T13:56:05;99121.45;;;24.50;48.68
35848;BME280;22332;51.954;20.118;2023-07-02T13:59:11;99120.69;;;24.69;48.36
35848;BME280;22332;51.954;20.118;2023-07-02T14:02:16;99121.06;;;24.77;47.47
35848;BME280;22332;51.954;20.118;2023-07-02T14:05:23;99117.85;;;24.69;47.53
35848;BME280;22332;51.954;20.118;2023-07-02T14:08:28;99113.17;;;24.63;46.09
35848;BME280;22332;51.954;20.118;2023-07-02T14:11:37;99105.96;;;24.63;47.57
35848;BME280;22332;51.954;20.118;2023-07-02T14:14:42;99107.58;;;24.82;47.51
35848;BME280;22332;51.954;20.118;2023-07-02T14:17:50;99113.95;;;24.94;46.97
35848;BME280;22332;51.954;20.118;2023-07-02T14:20:56;99118.25;;;24.96;46.97
35848;BME280;22332;51.954;20.118;2023-07-02T14:24:01;99117.38;;;24.93;47.36
35848;BME280;22332;51.954;20.118;2023-07-02T14:27:07;99118.53;;;24.93;47.33
35848;BME280;22332;51.954;20.118;2023-07-02T14:30:15;99115.34;;;25.09;47.54
35848;BME280;22332;51.954;20.118;2023-07-02T14:33:20;99114.33;;;25.22;47.33
35848;BME280;22332;51.954;20.118;2023-07-02T14:36:26;99112.41;;;25.23;47.33
35848;BME280;22332;51.954;20.118;2023-07-02T14:39:32;99113.83;;;25.30;46.92
35848;BME280;22332;51.954;20.118;2023-07-02T14:42:37;99112.73;;;25.34;47.25
35848;BME280;22332;51.954;20.118;2023-07-02T14:45:48;99118.76;;;25.26;46.35
35848;BME280;22332;51.954;20.118;2023-07-02T14:48:54;99120.06;;;25.22;46.88
35848;BME280;22332;51.954;20.118;2023-07-02T14:52:00;99123.63;;;25.26;45.69
35848;BME280;22332;51.954;20.118;2023-07-02T14:55:07;99122.84;;;25.21;46.16
35848;BME280;22332;51.954;20.118;2023-07-02T14:58:14;99124.24;;;25.38;46.19
35848;BME280;22332;51.954;20.118;2023-07-02T15:01:20;99127.06;;;25.40;45.62
35848;BME280;22332;51.954;20.118;2023-07-02T15:04:26;99126.26;;;25.36;45.91
35848;BME280;22332;51.954;20.118;2023-07-02T15:07:33;99130.94;;;25.40;45.38
35848;BME280;22332;51.954;20.118;2023-07-02T15:10:39;99124.67;;;25.38;45.31
35848;BME280;22332;51.954;20.118;2023-07-02T15:13:45;99131.09;;;25.40;45.65
35848;BME280;22332;51.954;20.118;2023-07-02T15:16:51;99127.27;;;25.45;45.38
35848;BME280;22332;51.954;20.118;2023-07-02T15:19:56;99129.99;;;25.26;44.07
35848;BME280;22332;51.954;20.118;2023-07-02T15:23:04;99130.38;;;25.15;44.86
35848;BME280;22332;51.954;20.118;2023-07-02T15:26:10;99125.14;;;24.94;44.06
35848;BME280;22332;51.954;20.118;2023-07-02T15:29:15;99127.61;;;24.73;45.03
35848;BME280;22332;51.954;20.118;2023-07-02T15:32:21;99129.16;;;24.66;45.14
35848;BME280;22332;51.954;20.118;2023-07-02T15:35:27;99127.08;;;24.62;44.89
35848;BME280;22332;51.954;20.118;2023-07-02T15:38:33;99127.88;;;24.52;45.04
35848;BME280;22332;51.954;20.118;2023-07-02T15:41:38;99129.06;;;24.38;44.80
35848;BME280;22332;51.954;20.118;2023-07-02T15:44:47;99130.14;;;24.27;44.79
35848;BME280;22332;51.954;20.118;2023-07-02T15:47:52;99125.55;;;24.17;44.48
35848;BME280;22332;51.954;20.118;2023-07-02T15:50:58;99125.38;;;24.18;44.98
35848;BME280;22332;51.954;20.118;2023-07-02T15:54:04;99125.61;;;24.21;45.36
35848;BME280;22332;51.954;20.118;2023-07-02T15:57:11;99120.96;;;24.15;45.38
35848;BME280;22332;51.954;20.118;2023-07-02T16:00:17;99119.42;;;24.10;45.36
35848;BME280;22332;51.954;20.118;2023-07-02T16:03:23;99119.05;;;24.05;45.18
35848;BME280;22332;51.954;20.118;2023-07-02T16:06:29;99121.81;;;24.01;45.66
35848;BME280;22332;51.954;20.118;2023-07-02T16:09:38;99120.45;;;23.98;45.25
35848;BME280;22332;51.954;20.118;2023-07-02T16:12:43;99125.05;;;23.88;45.15
35848;BME280;22332;51.954;20.118;2023-07-02T16:15:49;99125.20;;;23.81;45.64
35848;BME280;22332;51.954;20.118;2023-07-02T16:18:55;99131.57;;;23.79;45.48